createdAt,value
2022-11-17T00:02:02.112Z,98683.88
2022-11-17T00:04:31.188Z,98675.72
2022-11-17T00:06:58.176Z,98667.63
2022-11-17T00:09:25.003Z,98656.91
2022-11-17T00:12:10.682Z,98649.75
2022-11-17T00:14:37.753Z,98651.16
2022-11-17T00:17:09.752Z,98645.31
2022-11-17T00:19:55.319Z,98629.38
2022-11-17T00:22:21.971Z,98622.88
2022-11-17T00:24:48.827Z,98618.47
2022-11-17T00:27:15.607Z,98614.91
2022-11-17T00:29:41.968Z,98617.63
2022-11-17T00:32:37.117Z,98604.63
2022-11-17T00:35:04.569Z,98601.31
2022-11-17T00:37:33.948Z,98594.41
2022-11-17T00:40:01.105Z,98587.09
2022-11-17T00:42:27.810Z,98577.75
2022-11-17T00:44:54.163Z,98575.09
2022-11-17T00:47:20.550Z,98573.38
2022-11-17T00:49:46.913Z,98568.47
2022-11-17T00:52:13.294Z,98562.41
2022-11-17T00:54:39.655Z,98555.34
2022-11-17T00:57:06.033Z,98542.56
2022-11-17T00:59:32.411Z,98541.09
2022-11-17T01:01:58.821Z,98524.59
2022-11-17T01:04:25.243Z,98523.53
2022-11-17T01:06:51.686Z,98515.50
2022-11-17T01:09:20.668Z,98521.38
2022-11-17T01:11:48.390Z,98520.25
2022-11-17T01:16:58.613Z,98513.81
2022-11-17T01:19:25.064Z,98511.34
2022-11-17T01:21:51.441Z,98502.66
2022-11-17T01:24:18.215Z,98495.63
2022-11-17T01:26:45.732Z,98497.50
2022-11-17T01:29:14.191Z,98489.16
2022-11-17T01:31:43.467Z,98479.78
2022-11-17T01:34:09.980Z,98473.88
2022-11-17T01:36:57.651Z,98478.00
2022-11-17T01:39:27.438Z,98467.59
2022-11-17T01:41:54.720Z,98466.03
2022-11-17T01:44:36.200Z,98459.69
2022-11-17T01:47:03.953Z,98453.59
2022-11-17T01:49:30.943Z,98455.34
2022-11-17T01:52:01.427Z,98441.47
2022-11-17T01:54:29.471Z,98439.81
2022-11-17T01:56:59.778Z,98432.09
2022-11-17T01:59:42.622Z,98427.25
2022-11-17T02:02:09.033Z,98424.81
2022-11-17T02:04:38.470Z,98422.28
2022-11-17T02:07:16.899Z,98422.06
2022-11-17T02:09:43.834Z,98412.41
2022-11-17T02:12:12.586Z,98415.59
2022-11-17T02:14:39.485Z,98416.28
2022-11-17T02:17:13.717Z,98415.59
2022-11-17T02:19:42.175Z,98412.78
2022-11-17T02:22:50.675Z,98407.19
2022-11-17T02:25:50.651Z,98395.50
2022-11-17T02:28:28.973Z,98390.22
2022-11-17T02:31:20.061Z,98381.81
2022-11-17T02:33:59.840Z,98378.63
2022-11-17T02:36:35.305Z,98381.75
2022-11-17T02:39:24.390Z,98375.53
2022-11-17T02:42:10.070Z,98365.13
2022-11-17T02:44:57.851Z,98362.59
2022-11-17T02:47:27.885Z,98357.69
2022-11-17T02:49:57.831Z,98357.69
2022-11-17T02:52:25.150Z,98353.78
2022-11-17T02:54:51.525Z,98345.28
2022-11-17T02:57:35.179Z,98343.91
2022-11-17T03:00:06.191Z,98338.38
2022-11-17T03:02:50.910Z,98328.50
2022-11-17T03:05:25.519Z,98327.84
2022-11-17T03:08:15.112Z,98332.34
2022-11-17T03:11:02.766Z,98328.44
2022-11-17T03:14:01.201Z,98317.66
2022-11-17T03:16:36.045Z,98317.59
2022-11-17T03:19:22.495Z,98313.75
2022-11-17T03:22:09.770Z,98313.75
2022-11-17T03:24:42.903Z,98310.25
2022-11-17T03:27:16.438Z,98300.72
2022-11-17T03:29:45.085Z,98296.19
2022-11-17T03:32:12.733Z,98294.50
2022-11-17T03:34:52.078Z,98294.75
2022-11-17T03:37:19.554Z,98289.53
2022-11-17T03:39:58.907Z,98290.19
2022-11-17T03:42:29.727Z,98289.31
2022-11-17T03:45:01.385Z,98289.50
2022-11-17T03:47:28.492Z,98275.59
2022-11-17T03:50:05.934Z,98270.06
2022-11-17T03:52:33.402Z,98270.22
2022-11-17T03:55:00.201Z,98269.47
2022-11-17T03:57:37.215Z,98270.22
2022-11-17T04:00:15.596Z,98261.81
2022-11-17T04:02:49.390Z,98261.56
2022-11-17T04:05:17.063Z,98259.38
2022-11-17T04:07:45.637Z,98244.63
2022-11-17T04:10:15.690Z,98242.97
2022-11-17T04:13:01.071Z,98239.19
2022-11-17T04:15:46.137Z,98236.00
2022-11-17T04:18:13.010Z,98238.38
2022-11-17T04:20:39.358Z,98239.41
2022-11-17T04:23:07.959Z,98236.00
2022-11-17T04:26:05.607Z,98233.19
2022-11-17T04:28:39.337Z,98240.84
2022-11-17T04:31:08.502Z,98233.97
2022-11-17T04:33:35.895Z,98237.59
2022-11-17T04:36:02.878Z,98236.13
2022-11-17T04:38:29.281Z,98212.69
2022-11-17T04:41:25.435Z,98220.00
2022-11-17T04:43:52.376Z,98219.63
2022-11-17T04:46:19.984Z,98211.16
2022-11-17T04:48:47.559Z,98217.09
2022-11-17T04:51:15.177Z,98211.47
2022-11-17T04:53:42.471Z,98208.47
2022-11-17T04:56:08.934Z,98207.56
2022-11-17T04:58:35.664Z,98191.47
2022-11-17T05:01:14.340Z,98206.09
2022-11-17T05:03:45.046Z,98213.78
2022-11-17T05:06:17.538Z,98211.53
2022-11-17T05:08:44.554Z,98212.69
2022-11-17T05:11:31.077Z,98205.31
2022-11-17T05:13:57.947Z,98206.28
2022-11-17T05:16:43.047Z,98202.03
2022-11-17T05:19:12.862Z,98200.06
2022-11-17T05:21:39.432Z,98197.28
2022-11-17T05:24:06.371Z,98194.16
2022-11-17T05:26:35.389Z,98180.56
2022-11-17T05:29:04.065Z,98172.13
2022-11-17T05:31:30.820Z,98164.06
2022-11-17T05:33:57.763Z,98166.63
2022-11-17T05:36:25.324Z,98168.50
2022-11-17T05:38:52.564Z,98163.28
2022-11-17T05:41:19.368Z,98162.56
2022-11-17T05:43:46.259Z,98162.50
2022-11-17T05:46:13.274Z,98160.09
2022-11-17T05:48:40.025Z,98166.75
2022-11-17T05:51:06.508Z,98158.28
2022-11-17T05:53:33.531Z,98158.38
2022-11-17T05:56:36.765Z,98153.34
2022-11-17T05:59:28.302Z,98151.28
2022-11-17T06:02:01.231Z,98151.44
2022-11-17T06:04:28.566Z,98151.50
2022-11-17T06:06:58.983Z,98148.03
2022-11-17T06:09:31.704Z,98142.97
2022-11-17T06:12:04.128Z,98151.63
2022-11-17T06:14:32.192Z,98154.06
2022-11-17T06:17:05.307Z,98151.25
2022-11-17T06:19:38.375Z,98152.28
2022-11-17T06:22:12.229Z,98149.66
2022-11-17T06:24:41.088Z,98155.94
2022-11-17T06:27:07.567Z,98153.63
2022-11-17T06:29:34.350Z,98153.38
2022-11-17T06:32:02.661Z,98162.00
2022-11-17T06:34:29.363Z,98155.78
2022-11-17T06:36:55.924Z,98151.53
2022-11-17T06:39:22.333Z,98145.41
2022-11-17T06:41:48.698Z,98149.63
2022-11-17T06:44:15.113Z,98161.63
2022-11-17T06:46:46.121Z,98158.91
2022-11-17T06:49:15.221Z,98151.28
2022-11-17T06:51:45.139Z,98146.97
2022-11-17T06:54:14.312Z,98152.00
2022-11-17T06:56:40.757Z,98157.47
2022-11-17T06:59:07.427Z,98158.84
2022-11-17T07:01:33.832Z,98153.34
2022-11-17T07:04:00.239Z,98158.00
2022-11-17T07:06:26.664Z,98164.00
2022-11-17T07:08:53.058Z,98168.13
2022-11-17T07:11:19.437Z,98176.06
2022-11-17T07:13:45.908Z,98176.06
2022-11-17T07:16:20.123Z,98170.81
2022-11-17T07:18:49.551Z,98178.38
2022-11-17T07:21:16.197Z,98170.75
2022-11-17T07:23:44.707Z,98178.66
2022-11-17T07:26:11.519Z,98173.56
2022-11-17T07:28:38.319Z,98172.06
2022-11-17T07:31:06.623Z,98170.00
2022-11-17T07:33:33.067Z,98167.25
2022-11-17T07:36:10.598Z,98165.78
2022-11-17T07:38:39.183Z,98174.63
2022-11-17T07:41:07.034Z,98168.03
2022-11-17T07:43:34.569Z,98163.72
2022-11-17T07:46:09.319Z,98168.59
2022-11-17T07:48:36.105Z,98163.38
2022-11-17T07:51:03.431Z,98163.19
2022-11-17T07:53:31.455Z,98160.28
2022-11-17T07:56:02.932Z,98158.03
2022-11-17T07:58:29.842Z,98170.03
2022-11-17T08:00:56.256Z,98168.25
2022-11-17T08:03:22.806Z,98171.63
2022-11-17T08:05:49.195Z,98180.72
2022-11-17T08:08:15.658Z,98175.56
2022-11-17T08:10:43.011Z,98174.63
2022-11-17T08:13:09.420Z,98189.91
2022-11-17T08:15:36.117Z,98183.28
2022-11-17T08:18:02.490Z,98192.34
2022-11-17T08:20:29.411Z,98193.94
2022-11-17T08:22:56.499Z,98198.97
2022-11-17T08:25:24.776Z,98199.69
2022-11-17T08:27:54.653Z,98200.69
2022-11-17T08:30:21.326Z,98210.81
2022-11-17T08:32:49.417Z,98205.91
2022-11-17T08:35:17.142Z,98204.78
2022-11-17T08:37:43.617Z,98202.34
2022-11-17T08:40:11.078Z,98202.91
2022-11-17T08:42:37.621Z,98210.31
2022-11-17T08:45:05.420Z,98211.19
2022-11-17T08:47:31.862Z,98219.13
2022-11-17T08:49:58.269Z,98219.78
2022-11-17T08:52:24.676Z,98227.34
2022-11-17T08:54:52.393Z,98233.66
2022-11-17T08:57:18.943Z,98234.47
2022-11-17T08:59:45.381Z,98240.91
2022-11-17T09:02:12.385Z,98238.09
2022-11-17T09:04:38.782Z,98240.91
2022-11-17T09:07:05.407Z,98236.50
2022-11-17T09:09:32.331Z,98256.53
2022-11-17T09:11:59.743Z,98255.28
2022-11-17T09:14:26.509Z,98263.16
2022-11-17T09:16:53.314Z,98279.84
2022-11-17T09:19:19.969Z,98271.31
2022-11-17T09:21:46.340Z,98277.22
2022-11-17T09:24:12.737Z,98273.94
2022-11-17T09:26:40.877Z,98274.41
2022-11-17T09:29:08.076Z,98277.00
2022-11-17T09:31:35.322Z,98284.16
2022-11-17T09:34:05.296Z,98290.25
2022-11-17T09:36:32.763Z,98289.44
2022-11-17T09:38:59.144Z,98301.13
2022-11-17T09:41:42.155Z,98298.53
2022-11-17T09:44:08.444Z,98291.91
2022-11-17T09:46:46.320Z,98300.41
2022-11-17T09:49:31.272Z,98300.91
2022-11-17T09:52:01.736Z,98303.66
2022-11-17T09:54:38.862Z,98307.22
2022-11-17T09:57:07.458Z,98304.22
2022-11-17T09:59:35.116Z,98303.19
2022-11-17T10:02:01.550Z,98294.38
2022-11-17T10:04:29.315Z,98294.03
2022-11-17T10:06:57.751Z,98294.38
2022-11-17T10:09:40.976Z,98299.09
2022-11-17T10:12:15.304Z,98301.78
2022-11-17T10:14:42.074Z,98303.53
2022-11-17T10:17:09.286Z,98298.72
2022-11-17T10:19:38.147Z,98297.91
2022-11-17T10:22:05.221Z,98302.16
2022-11-17T10:24:34.526Z,98305.31
2022-11-17T10:27:02.916Z,98309.31
2022-11-17T10:29:29.505Z,98307.72
2022-11-17T10:31:55.899Z,98307.03
2022-11-17T10:34:40.167Z,98311.09
2022-11-17T10:37:13.205Z,98317.47
2022-11-17T10:39:41.790Z,98312.47
2022-11-17T10:42:29.628Z,98309.09
2022-11-17T10:44:57.753Z,98310.13
2022-11-17T10:47:34.971Z,98309.13
2022-11-17T10:50:21.104Z,98306.34
2022-11-17T10:52:48.550Z,98316.88
2022-11-17T10:55:25.768Z,98312.66
2022-11-17T10:57:55.829Z,98312.00
2022-11-17T11:00:30.632Z,98312.63
2022-11-17T11:03:21.630Z,98313.81
2022-11-17T11:06:02.081Z,98313.06
2022-11-17T11:09:02.076Z,98314.13
2022-11-17T11:11:50.964Z,98318.44
2022-11-17T11:14:26.316Z,98312.16
2022-11-17T11:16:54.346Z,98320.09
2022-11-17T11:19:21.048Z,98318.56
2022-11-17T11:22:20.844Z,98313.72
2022-11-17T11:25:10.203Z,98317.19
2022-11-17T11:27:55.295Z,98322.88
2022-11-17T11:30:21.858Z,98310.16
2022-11-17T11:33:22.968Z,98317.00
2022-11-17T11:36:08.040Z,98315.75
2022-11-17T11:38:55.635Z,98327.31
2022-11-17T11:41:35.498Z,98321.53
2022-11-17T11:44:01.789Z,98332.56
2022-11-17T11:46:50.304Z,98325.94
2022-11-17T11:49:28.105Z,98326.16
2022-11-17T11:51:54.474Z,98331.84
2022-11-17T11:54:32.089Z,98349.06
2022-11-17T11:56:58.488Z,98340.38
2022-11-17T11:59:40.663Z,98344.41
2022-11-17T12:02:13.274Z,98348.44
2022-11-17T12:04:51.854Z,98359.81
2022-11-17T12:07:59.991Z,98354.53
2022-11-17T12:10:36.616Z,98359.75
2022-11-17T12:13:04.216Z,98374.00
2022-11-17T12:15:35.087Z,98358.75
2022-11-17T12:18:18.017Z,98360.47
2022-11-17T12:20:57.811Z,98358.94
2022-11-17T12:24:05.771Z,98362.03
2022-11-17T12:26:33.287Z,98361.06
2022-11-17T12:29:21.492Z,98360.91
2022-11-17T12:31:49.557Z,98367.84
2022-11-17T12:34:28.855Z,98366.00
2022-11-17T12:37:14.603Z,98374.88
2022-11-17T12:39:59.883Z,98371.63
2022-11-17T12:42:27.729Z,98370.81
2022-11-17T12:45:14.499Z,98379.44
2022-11-17T12:47:59.168Z,98380.97
2022-11-17T12:50:54.685Z,98374.44
2022-11-17T12:53:36.353Z,98385.50
2022-11-17T12:56:38.101Z,98380.44
2022-11-17T12:59:09.172Z,98381.22
2022-11-17T13:01:57.217Z,98385.91
2022-11-17T13:04:36.627Z,98391.75
2022-11-17T13:07:08.189Z,98389.47
2022-11-17T13:09:36.291Z,98391.06
2022-11-17T13:12:07.340Z,98393.84
2022-11-17T13:14:35.225Z,98393.69
2022-11-17T13:17:02.606Z,98393.16
2022-11-17T13:19:32.846Z,98405.50
2022-11-17T13:22:18.534Z,98407.50
2022-11-17T13:24:49.570Z,98403.03
2022-11-17T13:27:23.834Z,98411.34
2022-11-17T13:29:51.297Z,98411.53
2022-11-17T13:32:21.121Z,98417.16
2022-11-17T13:34:59.752Z,98414.31
2022-11-17T13:37:27.985Z,98410.41
2022-11-17T13:40:19.731Z,98421.19
2022-11-17T13:42:46.579Z,98419.16
2022-11-17T13:45:16.292Z,98414.28
2022-11-17T13:47:48.323Z,98423.81
2022-11-17T13:50:26.755Z,98420.66
2022-11-17T13:53:14.127Z,98417.44
2022-11-17T13:55:47.200Z,98415.72
2022-11-17T13:58:42.497Z,98416.53
2022-11-17T14:01:11.233Z,98417.53
2022-11-17T14:03:39.691Z,98413.34
2022-11-17T14:06:08.665Z,98426.38
2022-11-17T14:08:36.139Z,98421.97
2022-11-17T14:11:11.601Z,98428.09
2022-11-17T14:13:44.020Z,98428.22
2022-11-17T14:16:22.731Z,98426.31
2022-11-17T14:18:57.761Z,98433.00
2022-11-17T14:21:24.153Z,98432.13
2022-11-17T14:24:01.573Z,98431.69
2022-11-17T14:26:27.971Z,98430.59
2022-11-17T14:28:55.114Z,98422.81
2022-11-17T14:31:21.555Z,98434.72
2022-11-17T14:33:50.318Z,98438.66
2022-11-17T14:36:17.490Z,98435.94
2022-11-17T14:38:44.974Z,98441.28
2022-11-17T14:41:11.391Z,98437.28
2022-11-17T14:43:37.981Z,98447.59
2022-11-17T14:46:04.451Z,98452.19
2022-11-17T14:48:30.862Z,98450.47
2022-11-17T14:50:59.113Z,98447.56
2022-11-17T14:53:25.896Z,98448.56
2022-11-17T14:55:52.490Z,98444.41
2022-11-17T14:58:18.898Z,98443.88
2022-11-17T15:00:45.314Z,98444.53
2022-11-17T15:03:12.049Z,98450.03
2022-11-17T15:05:45.379Z,98449.31
2022-11-17T15:08:12.171Z,98451.50
2022-11-17T15:10:43.832Z,98460.13
2022-11-17T15:13:10.192Z,98459.81
2022-11-17T15:15:36.659Z,98458.75
2022-11-17T15:18:03.138Z,98469.09
2022-11-17T15:20:29.801Z,98461.22
2022-11-17T15:23:01.864Z,98473.09
2022-11-17T15:25:29.552Z,98470.72
2022-11-17T15:27:56.407Z,98474.81
2022-11-17T15:30:22.952Z,98486.00
2022-11-17T15:32:49.326Z,98482.66
2022-11-17T15:35:15.786Z,98484.34
2022-11-17T15:37:42.249Z,98491.91
2022-11-17T15:40:09.223Z,98491.09
2022-11-17T15:42:35.653Z,98491.69
2022-11-17T15:45:02.028Z,98491.03
2022-11-17T15:47:28.409Z,98488.78
2022-11-17T15:49:58.286Z,98491.91
2022-11-17T15:52:41.435Z,98490.88
2022-11-17T15:55:11.534Z,98490.78
2022-11-17T15:57:37.930Z,98492.16
2022-11-17T16:00:06.679Z,98493.50
2022-11-17T16:02:33.053Z,98503.06
2022-11-17T16:04:59.393Z,98502.28
2022-11-17T16:07:25.868Z,98503.50
2022-11-17T16:09:52.750Z,98512.97
2022-11-17T16:12:19.199Z,98510.25
2022-11-17T16:14:45.673Z,98503.91
2022-11-17T16:17:12.077Z,98510.16
2022-11-17T16:19:38.435Z,98512.84
2022-11-17T16:22:04.796Z,98512.69
2022-11-17T16:24:31.176Z,98512.50
2022-11-17T16:26:57.611Z,98510.78
2022-11-17T16:29:24.741Z,98518.50
2022-11-17T16:31:51.130Z,98521.22
2022-11-17T16:34:18.755Z,98527.81
2022-11-17T16:36:45.256Z,98521.75
2022-11-17T16:39:16.951Z,98524.22
2022-11-17T16:41:50.022Z,98522.16
2022-11-17T16:44:17.837Z,98528.91
2022-11-17T16:46:46.496Z,98528.75
2022-11-17T16:49:15.480Z,98527.84
2022-11-17T16:51:47.469Z,98528.84
2022-11-17T16:54:13.927Z,98531.72
2022-11-17T16:56:40.425Z,98533.28
2022-11-17T16:59:07.311Z,98535.25
2022-11-17T17:01:35.285Z,98542.19
2022-11-17T17:04:04.226Z,98535.72
2022-11-17T17:06:31.156Z,98536.44
2022-11-17T17:09:03.028Z,98534.03
2022-11-17T17:11:31.942Z,98542.09
2022-11-17T17:14:00.181Z,98539.22
2022-11-17T17:16:26.897Z,98543.47
2022-11-17T17:18:59.433Z,98544.41
2022-11-17T17:21:26.749Z,98539.59
2022-11-17T17:23:53.151Z,98546.59
2022-11-17T17:26:22.165Z,98548.13
2022-11-17T17:28:50.497Z,98547.72
2022-11-17T17:31:21.614Z,98552.22
2022-11-17T17:33:50.073Z,98551.22
2022-11-17T17:36:21.817Z,98547.66
2022-11-17T17:38:55.037Z,98563.88
2022-11-17T17:41:23.291Z,98560.22
2022-11-17T17:43:55.547Z,98561.44
2022-11-17T17:46:21.888Z,98557.03
2022-11-17T17:48:48.259Z,98568.25
2022-11-17T17:51:16.741Z,98564.88
2022-11-17T17:53:43.285Z,98565.09
2022-11-17T17:56:11.925Z,98568.25
2022-11-17T17:58:42.184Z,98564.97
2022-11-17T18:01:11.043Z,98567.78
2022-11-17T18:03:38.738Z,98567.22
2022-11-17T18:06:05.640Z,98572.16
2022-11-17T18:08:39.256Z,98581.09
2022-11-17T18:11:07.721Z,98580.22
2022-11-17T18:13:35.882Z,98581.34
2022-11-17T18:16:03.875Z,98588.41
2022-11-17T18:18:30.335Z,98592.59
2022-11-17T18:21:01.122Z,98589.81
2022-11-17T18:23:28.869Z,98599.78
2022-11-17T18:25:55.488Z,98594.53
2022-11-17T18:28:21.867Z,98598.47
2022-11-17T18:30:48.395Z,98598.47
2022-11-17T18:33:14.840Z,98605.41
2022-11-17T18:35:41.213Z,98605.00
2022-11-17T18:38:07.612Z,98604.56
2022-11-17T18:40:34.234Z,98611.38
2022-11-17T18:43:01.553Z,98617.44
2022-11-17T18:45:28.309Z,98617.75
2022-11-17T18:47:54.674Z,98618.66
2022-11-17T18:50:21.081Z,98629.06
2022-11-17T18:52:47.450Z,98629.44
2022-11-17T18:55:13.821Z,98640.84
2022-11-17T18:57:44.714Z,98646.00
2022-11-17T19:00:12.156Z,98650.38
2022-11-17T19:02:38.543Z,98646.44
2022-11-17T19:05:05.197Z,98643.00
2022-11-17T19:07:31.886Z,98645.44
2022-11-17T19:09:58.324Z,98649.75
2022-11-17T19:12:24.765Z,98650.38
2022-11-17T19:14:51.132Z,98645.94
2022-11-17T19:17:17.514Z,98648.16
2022-11-17T19:19:43.897Z,98653.94
2022-11-17T19:22:10.329Z,98656.75
2022-11-17T19:24:38.645Z,98655.53
2022-11-17T19:27:05.011Z,98661.63
2022-11-17T19:29:31.445Z,98665.97
2022-11-17T19:31:57.803Z,98664.28
2022-11-17T19:34:24.153Z,98668.50
2022-11-17T19:36:50.549Z,98675.34
2022-11-17T19:39:17.195Z,98687.59
2022-11-17T19:41:45.214Z,98687.66
2022-11-17T19:44:11.845Z,98691.66
2022-11-17T19:46:38.866Z,98692.63
2022-11-17T19:49:05.961Z,98692.47
2022-11-17T19:51:33.849Z,98697.06
2022-11-17T19:54:05.637Z,98698.59
2022-11-17T19:56:32.104Z,98701.97
2022-11-17T19:58:58.564Z,98704.56
2022-11-17T20:01:26.849Z,98708.91
2022-11-17T20:03:54.646Z,98704.63
2022-11-17T20:06:23.629Z,98703.16
2022-11-17T20:08:49.987Z,98705.00
2022-11-17T20:11:22.210Z,98710.31
2022-11-17T20:13:48.595Z,98715.59
2022-11-17T20:16:17.672Z,98718.63
2022-11-17T20:18:45.210Z,98718.47
2022-11-17T20:21:13.876Z,98715.59
2022-11-17T20:23:40.579Z,98723.81
2022-11-17T20:26:10.320Z,98732.41
2022-11-17T20:28:37.532Z,98726.03
2022-11-17T20:31:19.175Z,98731.06
2022-11-17T20:33:46.550Z,98729.59
2022-11-17T20:36:15.717Z,98740.28
2022-11-17T20:38:42.090Z,98743.94
2022-11-17T20:41:08.743Z,98746.59
2022-11-17T20:43:35.456Z,98750.97
2022-11-17T20:46:02.560Z,98746.66
2022-11-17T20:48:30.150Z,98747.56
2022-11-17T20:50:57.364Z,98750.97
2022-11-17T20:53:24.317Z,98746.84
2022-11-17T20:55:50.760Z,98751.03
2022-11-17T20:58:17.159Z,98757.25
2022-11-17T21:00:43.570Z,98757.81
2022-11-17T21:03:10.045Z,98766.50
2022-11-17T21:05:36.412Z,98770.50
2022-11-17T21:08:02.868Z,98771.91
2022-11-17T21:10:29.234Z,98769.00
2022-11-17T21:12:55.610Z,98778.19
2022-11-17T21:15:21.957Z,98783.44
2022-11-17T21:18:07.014Z,98782.78
2022-11-17T21:20:33.916Z,98779.00
2022-11-17T21:23:00.326Z,98782.78
2022-11-17T21:25:26.709Z,98791.50
2022-11-17T21:27:53.187Z,98789.84
2022-11-17T21:30:19.644Z,98792.28
2022-11-17T21:32:46.061Z,98797.59
2022-11-17T21:35:12.422Z,98800.09
2022-11-17T21:37:38.788Z,98805.66
2022-11-17T21:40:05.837Z,98811.75
2022-11-17T21:42:35.231Z,98810.97
2022-11-17T21:45:01.582Z,98810.56
2022-11-17T21:47:27.963Z,98815.50
2022-11-17T21:49:54.690Z,98813.56
2022-11-17T21:52:21.072Z,98816.88
2022-11-17T21:54:47.436Z,98822.09
2022-11-17T21:57:14.268Z,98827.50
2022-11-17T21:59:40.627Z,98825.66
2022-11-17T22:02:06.995Z,98817.94
2022-11-17T22:04:33.482Z,98830.47
2022-11-17T22:06:59.883Z,98827.88
2022-11-17T22:09:26.293Z,98835.63
2022-11-17T22:11:53.087Z,98836.59
2022-11-17T22:14:20.169Z,98846.19
2022-11-17T22:16:51.997Z,98855.09
2022-11-17T22:19:19.916Z,98856.06
2022-11-17T22:21:51.542Z,98851.56
2022-11-17T22:24:18.017Z,98856.56
2022-11-17T22:26:44.825Z,98856.56
2022-11-17T22:29:13.465Z,98856.88
2022-11-17T22:31:40.099Z,98855.44
2022-11-17T22:34:06.562Z,98862.69
2022-11-17T22:36:32.936Z,98858.59
2022-11-17T22:38:59.324Z,98864.47
2022-11-17T22:41:26.221Z,98866.97
2022-11-17T22:43:53.980Z,98870.25
2022-11-17T22:46:22.093Z,98866.22
2022-11-17T22:48:48.852Z,98863.53
2022-11-17T22:51:35.463Z,98867.81
2022-11-17T22:54:01.832Z,98865.22
2022-11-17T22:56:28.297Z,98874.91
2022-11-17T22:58:59.480Z,98868.53
2022-11-17T23:01:26.272Z,98869.78
2022-11-17T23:03:52.756Z,98865.38
2022-11-17T23:06:19.202Z,98874.00
2022-11-17T23:08:45.659Z,98868.50
2022-11-17T23:13:58.575Z,98870.22
2022-11-17T23:16:24.987Z,98873.00
2022-11-17T23:18:55.287Z,98876.13
2022-11-17T23:21:22.323Z,98883.94
2022-11-17T23:23:48.954Z,98874.69
2022-11-17T23:26:15.381Z,98891.31
2022-11-17T23:28:42.856Z,98894.13
2022-11-17T23:31:14.658Z,98894.31
2022-11-17T23:33:43.596Z,98896.25
2022-11-17T23:36:18.350Z,98893.44
2022-11-17T23:38:45.192Z,98905.50
2022-11-17T23:41:13.470Z,98909.66
2022-11-17T23:43:40.355Z,98918.44
2022-11-17T23:46:12.100Z,98914.72
2022-11-17T23:48:38.856Z,98920.66
2022-11-17T23:51:07.162Z,98926.63
2022-11-17T23:53:33.659Z,98927.88
2022-11-17T23:56:00.517Z,98937.78
2022-11-17T23:58:27.203Z,98935.22
